sensor_id;sensor_type;location;lat;lon;timestamp;P1;durP1;ratioP1;P2;durP2;ratioP2
22240;SDS011;11289;52.524;13.694;2023-02-28T00:00:46;7.18;;;3.35;;
22240;SDS011;11289;52.524;13.694;2023-02-28T00:03:11;6.15;;;3.38;;
22240;SDS011;11289;52.524;13.694;2023-02-28T00:05:36;5.97;;;3.10;;
22240;SDS011;11289;52.524;13.694;2023-02-28T00:08:02;6.13;;;2.92;;
22240;SDS011;11289;52.524;13.694;2023-02-28T00:10:28;5.80;;;3.10;;
22240;SDS011;11289;52.524;13.694;2023-02-28T00:12:56;8.02;;;3.47;;
22240;SDS011;11289;52.524;13.694;2023-02-28T00:15:25;7.68;;;3.53;;
22240;SDS011;11289;52.524;13.694;2023-02-28T00:17:51;8.95;;;3.60;;
22240;SDS011;11289;52.524;13.694;2023-02-28T00:20:17;5.25;;;3.58;;
22240;SDS011;11289;52.524;13.694;2023-02-28T00:22:44;6.35;;;3.55;;
22240;SDS011;11289;52.524;13.694;2023-02-28T00:25:13;7.30;;;3.47;;
22240;SDS011;11289;52.524;13.694;2023-02-28T00:27:40;6.65;;;3.47;;
22240;SDS011;11289;52.524;13.694;2023-02-28T00:30:06;7.72;;;3.55;;
22240;SDS011;11289;52.524;13.694;2023-02-28T00:32:33;8.60;;;4.70;;
22240;SDS011;11289;52.524;13.694;2023-02-28T00:34:59;7.80;;;3.70;;
22240;SDS011;11289;52.524;13.694;2023-02-28T00:37:25;6.65;;;3.78;;
22240;SDS011;11289;52.524;13.694;2023-02-28T00:39:50;6.60;;;4.07;;
22240;SDS011;11289;52.524;13.694;2023-02-28T00:42:16;5.78;;;3.47;;
22240;SDS011;11289;52.524;13.694;2023-02-28T00:44:41;6.70;;;3.70;;
22240;SDS011;11289;52.524;13.694;2023-02-28T00:47:07;8.10;;;4.15;;
22240;SDS011;11289;52.524;13.694;2023-02-28T00:49:32;6.90;;;3.67;;
22240;SDS011;11289;52.524;13.694;2023-02-28T00:51:57;5.75;;;3.17;;
22240;SDS011;11289;52.524;13.694;2023-02-28T00:54:23;9.13;;;3.13;;
22240;SDS011;11289;52.524;13.694;2023-02-28T00:56:49;8.60;;;3.00;;
22240;SDS011;11289;52.524;13.694;2023-02-28T00:59:15;5.10;;;2.75;;
22240;SDS011;11289;52.524;13.694;2023-02-28T01:01:42;8.48;;;3.97;;
22240;SDS011;11289;52.524;13.694;2023-02-28T01:04:09;8.35;;;3.35;;
22240;SDS011;11289;52.524;13.694;2023-02-28T01:06:35;11.32;;;3.50;;
22240;SDS011;11289;52.524;13.694;2023-02-28T01:09:01;9.25;;;3.15;;
22240;SDS011;11289;52.524;13.694;2023-02-28T01:11:27;6.85;;;3.20;;
22240;SDS011;11289;52.524;13.694;2023-02-28T01:13:52;7.50;;;3.35;;
22240;SDS011;11289;52.524;13.694;2023-02-28T01:16:18;7.57;;;3.60;;
22240;SDS011;11289;52.524;13.694;2023-02-28T01:18:43;8.38;;;2.92;;
22240;SDS011;11289;52.524;13.694;2023-02-28T01:21:10;6.97;;;3.60;;
22240;SDS011;11289;52.524;13.694;2023-02-28T01:23:38;8.55;;;3.50;;
22240;SDS011;11289;52.524;13.694;2023-02-28T01:26:08;7.05;;;4.18;;
22240;SDS011;11289;52.524;13.694;2023-02-28T01:28:36;10.77;;;4.75;;
22240;SDS011;11289;52.524;13.694;2023-02-28T01:31:02;9.05;;;4.15;;
22240;SDS011;11289;52.524;13.694;2023-02-28T01:33:27;9.93;;;4.63;;
22240;SDS011;11289;52.524;13.694;2023-02-28T01:36:03;7.45;;;3.97;;
22240;SDS011;11289;52.524;13.694;2023-02-28T01:38:39;8.73;;;3.92;;
22240;SDS011;11289;52.524;13.694;2023-02-28T01:41:05;10.13;;;4.90;;
22240;SDS011;11289;52.524;13.694;2023-02-28T01:43:35;6.68;;;4.00;;
22240;SDS011;11289;52.524;13.694;2023-02-28T01:46:22;8.77;;;4.38;;
22240;SDS011;11289;52.524;13.694;2023-02-28T01:48:58;8.65;;;4.45;;
22240;SDS011;11289;52.524;13.694;2023-02-28T01:51:33;12.65;;;5.05;;
22240;SDS011;11289;52.524;13.694;2023-02-28T01:54:01;9.43;;;4.50;;
22240;SDS011;11289;52.524;13.694;2023-02-28T01:56:30;7.18;;;4.32;;
22240;SDS011;11289;52.524;13.694;2023-02-28T01:59:01;9.07;;;4.50;;
22240;SDS011;11289;52.524;13.694;2023-02-28T02:01:27;12.25;;;4.82;;
22240;SDS011;11289;52.524;13.694;2023-02-28T02:03:57;10.75;;;5.07;;
22240;SDS011;11289;52.524;13.694;2023-02-28T02:06:27;9.80;;;5.13;;
22240;SDS011;11289;52.524;13.694;2023-02-28T02:08:55;9.88;;;4.90;;
22240;SDS011;11289;52.524;13.694;2023-02-28T02:11:21;9.07;;;5.07;;
22240;SDS011;11289;52.524;13.694;2023-02-28T02:16:34;8.57;;;5.32;;
22240;SDS011;11289;52.524;13.694;2023-02-28T02:27:20;9.65;;;5.10;;
22240;SDS011;11289;52.524;13.694;2023-02-28T02:32:58;10.90;;;4.95;;
22240;SDS011;11289;52.524;13.694;2023-02-28T02:47:05;8.93;;;5.05;;
22240;SDS011;11289;52.524;13.694;2023-02-28T02:49:36;8.95;;;4.85;;
22240;SDS011;11289;52.524;13.694;2023-02-28T02:52:04;10.10;;;5.45;;
22240;SDS011;11289;52.524;13.694;2023-02-28T02:54:36;10.40;;;5.20;;
22240;SDS011;11289;52.524;13.694;2023-02-28T02:57:08;8.52;;;6.13;;
22240;SDS011;11289;52.524;13.694;2023-02-28T02:59:38;8.88;;;5.03;;
22240;SDS011;11289;52.524;13.694;2023-02-28T03:02:06;12.35;;;5.85;;
22240;SDS011;11289;52.524;13.694;2023-02-28T03:04:40;10.10;;;5.43;;
22240;SDS011;11289;52.524;13.694;2023-02-28T03:07:08;13.40;;;5.25;;
22240;SDS011;11289;52.524;13.694;2023-02-28T03:09:33;8.40;;;4.93;;
22240;SDS011;11289;52.524;13.694;2023-02-28T03:12:00;8.88;;;5.18;;
22240;SDS011;11289;52.524;13.694;2023-02-28T03:17:18;10.93;;;5.78;;
22240;SDS011;11289;52.524;13.694;2023-02-28T03:25:20;9.88;;;5.25;;
22240;SDS011;11289;52.524;13.694;2023-02-28T03:30:48;10.55;;;4.75;;
22240;SDS011;11289;52.524;13.694;2023-02-28T03:33:56;9.38;;;5.85;;
22240;SDS011;11289;52.524;13.694;2023-02-28T03:36:25;9.93;;;5.20;;
22240;SDS011;11289;52.524;13.694;2023-02-28T03:38:58;9.10;;;4.75;;
22240;SDS011;11289;52.524;13.694;2023-02-28T03:41:36;8.30;;;4.72;;
22240;SDS011;11289;52.524;13.694;2023-02-28T03:44:09;9.13;;;3.90;;
22240;SDS011;11289;52.524;13.694;2023-02-28T03:46:42;11.23;;;4.88;;
22240;SDS011;11289;52.524;13.694;2023-02-28T03:49:19;11.63;;;4.80;;
22240;SDS011;11289;52.524;13.694;2023-02-28T03:51:47;8.98;;;4.40;;
22240;SDS011;11289;52.524;13.694;2023-02-28T03:54:16;11.90;;;5.50;;
22240;SDS011;11289;52.524;13.694;2023-02-28T03:57:10;10.55;;;5.03;;
22240;SDS011;11289;52.524;13.694;2023-02-28T03:59:39;12.40;;;5.75;;
22240;SDS011;11289;52.524;13.694;2023-02-28T04:02:07;11.65;;;6.10;;
22240;SDS011;11289;52.524;13.694;2023-02-28T04:04:33;10.57;;;5.72;;
22240;SDS011;11289;52.524;13.694;2023-02-28T04:07:17;9.73;;;5.07;;
22240;SDS011;11289;52.524;13.694;2023-02-28T04:09:43;9.90;;;5.25;;
22240;SDS011;11289;52.524;13.694;2023-02-28T04:12:09;11.60;;;6.35;;
22240;SDS011;11289;52.524;13.694;2023-02-28T04:14:34;11.52;;;6.50;;
22240;SDS011;11289;52.524;13.694;2023-02-28T04:16:59;11.25;;;6.65;;
22240;SDS011;11289;52.524;13.694;2023-02-28T04:19:25;12.13;;;6.18;;
22240;SDS011;11289;52.524;13.694;2023-02-28T04:21:51;12.80;;;5.45;;
22240;SDS011;11289;52.524;13.694;2023-02-28T04:24:18;8.85;;;5.50;;
22240;SDS011;11289;52.524;13.694;2023-02-28T04:26:47;9.63;;;4.90;;
22240;SDS011;11289;52.524;13.694;2023-02-28T04:29:17;8.60;;;5.80;;
22240;SDS011;11289;52.524;13.694;2023-02-28T04:31:54;9.90;;;5.22;;
22240;SDS011;11289;52.524;13.694;2023-02-28T04:34:22;9.88;;;5.13;;
22240;SDS011;11289;52.524;13.694;2023-02-28T04:36:48;8.32;;;5.10;;
22240;SDS011;11289;52.524;13.694;2023-02-28T04:39:18;9.38;;;4.93;;
22240;SDS011;11289;52.524;13.694;2023-02-28T04:41:44;9.88;;;5.68;;
22240;SDS011;11289;52.524;13.694;2023-02-28T04:44:10;9.80;;;4.95;;
22240;SDS011;11289;52.524;13.694;2023-02-28T04:46:36;10.30;;;5.43;;
22240;SDS011;11289;52.524;13.694;2023-02-28T04:49:01;10.50;;;5.38;;
22240;SDS011;11289;52.524;13.694;2023-02-28T04:51:26;10.60;;;5.20;;
22240;SDS011;11289;52.524;13.694;2023-02-28T04:53:52;8.93;;;5.28;;
22240;SDS011;11289;52.524;13.694;2023-02-28T04:56:18;13.98;;;6.47;;
22240;SDS011;11289;52.524;13.694;2023-02-28T04:58:43;11.73;;;6.05;;
22240;SDS011;11289;52.524;13.694;2023-02-28T05:03:46;13.43;;;7.00;;
22240;SDS011;11289;52.524;13.694;2023-02-28T05:06:11;11.85;;;6.55;;
22240;SDS011;11289;52.524;13.694;2023-02-28T05:08:37;11.02;;;6.22;;
22240;SDS011;11289;52.524;13.694;2023-02-28T05:11:03;12.45;;;6.75;;
22240;SDS011;11289;52.524;13.694;2023-02-28T05:13:31;12.75;;;7.50;;
22240;SDS011;11289;52.524;13.694;2023-02-28T05:15:56;9.82;;;6.88;;
22240;SDS011;11289;52.524;13.694;2023-02-28T05:18:21;13.80;;;7.43;;
22240;SDS011;11289;52.524;13.694;2023-02-28T05:20:47;12.65;;;6.30;;
22240;SDS011;11289;52.524;13.694;2023-02-28T05:23:12;14.25;;;7.68;;
22240;SDS011;11289;52.524;13.694;2023-02-28T05:25:39;11.48;;;6.63;;
22240;SDS011;11289;52.524;13.694;2023-02-28T05:28:06;14.48;;;7.95;;
22240;SDS011;11289;52.524;13.694;2023-02-28T05:30:32;14.98;;;6.90;;
22240;SDS011;11289;52.524;13.694;2023-02-28T05:32:58;15.43;;;8.20;;
22240;SDS011;11289;52.524;13.694;2023-02-28T05:35:24;17.33;;;9.32;;
22240;SDS011;11289;52.524;13.694;2023-02-28T05:37:50;15.68;;;7.80;;
22240;SDS011;11289;52.524;13.694;2023-02-28T05:40:15;13.45;;;7.32;;
22240;SDS011;11289;52.524;13.694;2023-02-28T05:42:41;13.60;;;6.55;;
22240;SDS011;11289;52.524;13.694;2023-02-28T05:45:07;11.65;;;6.70;;
22240;SDS011;11289;52.524;13.694;2023-02-28T05:47:33;11.30;;;6.25;;
22240;SDS011;11289;52.524;13.694;2023-02-28T05:49:59;13.02;;;6.90;;
22240;SDS011;11289;52.524;13.694;2023-02-28T05:52:25;11.82;;;5.97;;
22240;SDS011;11289;52.524;13.694;2023-02-28T05:54:51;14.85;;;7.70;;
22240;SDS011;11289;52.524;13.694;2023-02-28T05:57:16;11.40;;;6.00;;
22240;SDS011;11289;52.524;13.694;2023-02-28T05:59:42;12.57;;;6.72;;
22240;SDS011;11289;52.524;13.694;2023-02-28T06:02:11;14.38;;;8.82;;
22240;SDS011;11289;52.524;13.694;2023-02-28T06:04:38;26.08;;;12.25;;
22240;SDS011;11289;52.524;13.694;2023-02-28T06:07:05;32.40;;;15.43;;
22240;SDS011;11289;52.524;13.694;2023-02-28T06:09:31;35.40;;;16.52;;
22240;SDS011;11289;52.524;13.694;2023-02-28T06:12:00;34.85;;;15.80;;
22240;SDS011;11289;52.524;13.694;2023-02-28T06:14:31;35.08;;;16.20;;
22240;SDS011;11289;52.524;13.694;2023-02-28T06:16:58;32.28;;;16.35;;
22240;SDS011;11289;52.524;13.694;2023-02-28T06:19:25;30.98;;;13.73;;
22240;SDS011;11289;52.524;13.694;2023-02-28T06:21:50;23.63;;;11.05;;
22240;SDS011;11289;52.524;13.694;2023-02-28T06:24:23;22.27;;;12.02;;
22240;SDS011;11289;52.524;13.694;2023-02-28T06:26:52;17.40;;;10.15;;
22240;SDS011;11289;52.524;13.694;2023-02-28T06:29:18;14.80;;;8.55;;
22240;SDS011;11289;52.524;13.694;2023-02-28T06:31:44;19.98;;;9.63;;
22240;SDS011;11289;52.524;13.694;2023-02-28T06:34:10;17.13;;;8.65;;
22240;SDS011;11289;52.524;13.694;2023-02-28T06:36:39;20.35;;;10.02;;
22240;SDS011;11289;52.524;13.694;2023-02-28T06:39:06;13.68;;;8.88;;
22240;SDS011;11289;52.524;13.694;2023-02-28T06:41:32;17.85;;;9.75;;
22240;SDS011;11289;52.524;13.694;2023-02-28T06:44:12;13.77;;;9.65;;
22240;SDS011;11289;52.524;13.694;2023-02-28T06:46:42;13.05;;;8.98;;
22240;SDS011;11289;52.524;13.694;2023-02-28T06:49:09;18.80;;;10.13;;
22240;SDS011;11289;52.524;13.694;2023-02-28T06:51:36;16.65;;;9.15;;
22240;SDS011;11289;52.524;13.694;2023-02-28T06:54:04;18.48;;;9.55;;
22240;SDS011;11289;52.524;13.694;2023-02-28T06:56:30;18.25;;;10.02;;
22240;SDS011;11289;52.524;13.694;2023-02-28T06:58:55;17.38;;;9.60;;
22240;SDS011;11289;52.524;13.694;2023-02-28T07:01:21;19.33;;;11.43;;
22240;SDS011;11289;52.524;13.694;2023-02-28T07:03:48;18.65;;;8.88;;
22240;SDS011;11289;52.524;13.694;2023-02-28T07:06:17;17.27;;;10.23;;
22240;SDS011;11289;52.524;13.694;2023-02-28T07:08:43;21.48;;;10.35;;
22240;SDS011;11289;52.524;13.694;2023-02-28T07:11:09;14.50;;;9.93;;
22240;SDS011;11289;52.524;13.694;2023-02-28T07:13:35;13.13;;;8.55;;
22240;SDS011;11289;52.524;13.694;2023-02-28T07:16:05;15.57;;;8.07;;
22240;SDS011;11289;52.524;13.694;2023-02-28T07:18:32;17.20;;;8.23;;
22240;SDS011;11289;52.524;13.694;2023-02-28T07:20:58;16.63;;;7.93;;
22240;SDS011;11289;52.524;13.694;2023-02-28T07:23:23;15.02;;;8.32;;
22240;SDS011;11289;52.524;13.694;2023-02-28T07:25:49;12.18;;;7.95;;
22240;SDS011;11289;52.524;13.694;2023-02-28T07:28:15;15.32;;;8.23;;
22240;SDS011;11289;52.524;13.694;2023-02-28T07:30:41;14.13;;;8.05;;
22240;SDS011;11289;52.524;13.694;2023-02-28T07:33:07;13.05;;;7.57;;
22240;SDS011;11289;52.524;13.694;2023-02-28T07:35:33;18.40;;;9.30;;
22240;SDS011;11289;52.524;13.694;2023-02-28T07:37:59;18.10;;;8.48;;
22240;SDS011;11289;52.524;13.694;2023-02-28T07:40:25;16.27;;;8.65;;
22240;SDS011;11289;52.524;13.694;2023-02-28T07:42:51;13.10;;;6.72;;
22240;SDS011;11289;52.524;13.694;2023-02-28T07:45:16;16.63;;;7.22;;
22240;SDS011;11289;52.524;13.694;2023-02-28T07:47:42;11.93;;;6.68;;
22240;SDS011;11289;52.524;13.694;2023-02-28T07:50:09;11.60;;;6.93;;
22240;SDS011;11289;52.524;13.694;2023-02-28T07:52:36;15.40;;;7.15;;
22240;SDS011;11289;52.524;13.694;2023-02-28T07:55:03;10.50;;;6.95;;
22240;SDS011;11289;52.524;13.694;2023-02-28T07:57:29;10.55;;;6.10;;
22240;SDS011;11289;52.524;13.694;2023-02-28T07:59:55;12.93;;;6.75;;
22240;SDS011;11289;52.524;13.694;2023-02-28T08:02:20;14.32;;;8.05;;
22240;SDS011;11289;52.524;13.694;2023-02-28T08:04:45;15.63;;;8.23;;
22240;SDS011;11289;52.524;13.694;2023-02-28T08:07:14;10.77;;;6.72;;
22240;SDS011;11289;52.524;13.694;2023-02-28T08:09:40;13.88;;;7.40;;
22240;SDS011;11289;52.524;13.694;2023-02-28T08:12:06;12.27;;;6.97;;
22240;SDS011;11289;52.524;13.694;2023-02-28T08:14:32;12.05;;;6.70;;
22240;SDS011;11289;52.524;13.694;2023-02-28T08:16:58;10.32;;;6.30;;
22240;SDS011;11289;52.524;13.694;2023-02-28T08:19:23;10.38;;;5.68;;
22240;SDS011;11289;52.524;13.694;2023-02-28T08:21:49;11.38;;;6.70;;
22240;SDS011;11289;52.524;13.694;2023-02-28T08:24:14;12.27;;;6.63;;
22240;SDS011;11289;52.524;13.694;2023-02-28T08:26:39;9.25;;;6.07;;
22240;SDS011;11289;52.524;13.694;2023-02-28T08:29:05;10.93;;;6.20;;
22240;SDS011;11289;52.524;13.694;2023-02-28T08:31:30;10.05;;;5.75;;
22240;SDS011;11289;52.524;13.694;2023-02-28T08:33:55;10.57;;;5.97;;
22240;SDS011;11289;52.524;13.694;2023-02-28T08:36:23;10.07;;;5.38;;
22240;SDS011;11289;52.524;13.694;2023-02-28T08:38:49;11.82;;;5.35;;
22240;SDS011;11289;52.524;13.694;2023-02-28T08:41:14;9.27;;;4.55;;
22240;SDS011;11289;52.524;13.694;2023-02-28T08:43:40;12.55;;;5.20;;
22240;SDS011;11289;52.524;13.694;2023-02-28T08:46:06;9.65;;;5.32;;
22240;SDS011;11289;52.524;13.694;2023-02-28T08:48:32;11.07;;;5.05;;
22240;SDS011;11289;52.524;13.694;2023-02-28T08:53:25;9.82;;;5.00;;
22240;SDS011;11289;52.524;13.694;2023-02-28T08:56:00;8.40;;;4.97;;
22240;SDS011;11289;52.524;13.694;2023-02-28T08:58:28;7.35;;;4.18;;
22240;SDS011;11289;52.524;13.694;2023-02-28T09:00:53;7.25;;;3.67;;
22240;SDS011;11289;52.524;13.694;2023-02-28T09:03:20;12.20;;;3.17;;
22240;SDS011;11289;52.524;13.694;2023-02-28T09:06:20;8.43;;;4.95;;
22240;SDS011;11289;52.524;13.694;2023-02-28T09:08:38;7.95;;;4.03;;
22240;SDS011;11289;52.524;13.694;2023-02-28T09:11:05;4.93;;;2.67;;
22240;SDS011;11289;52.524;13.694;2023-02-28T09:13:30;6.43;;;3.70;;
22240;SDS011;11289;52.524;13.694;2023-02-28T09:15:57;7.03;;;3.88;;
22240;SDS011;11289;52.524;13.694;2023-02-28T09:18:24;6.57;;;3.70;;
22240;SDS011;11289;52.524;13.694;2023-02-28T09:20:50;6.53;;;3.28;;
22240;SDS011;11289;52.524;13.694;2023-02-28T09:23:15;7.15;;;3.95;;
22240;SDS011;11289;52.524;13.694;2023-02-28T09:25:53;8.10;;;3.63;;
22240;SDS011;11289;52.524;13.694;2023-02-28T09:28:20;6.18;;;3.40;;
22240;SDS011;11289;52.524;13.694;2023-02-28T09:30:47;7.80;;;3.90;;
22240;SDS011;11289;52.524;13.694;2023-02-28T09:33:14;8.60;;;3.92;;
22240;SDS011;11289;52.524;13.694;2023-02-28T09:35:41;9.48;;;4.00;;
22240;SDS011;11289;52.524;13.694;2023-02-28T09:38:07;5.90;;;3.47;;
22240;SDS011;11289;52.524;13.694;2023-02-28T09:40:35;4.25;;;3.15;;
22240;SDS011;11289;52.524;13.694;2023-02-28T09:43:04;10.93;;;3.50;;
22240;SDS011;11289;52.524;13.694;2023-02-28T09:45:37;6.78;;;3.58;;
22240;SDS011;11289;52.524;13.694;2023-02-28T09:48:13;6.05;;;3.50;;
22240;SDS011;11289;52.524;13.694;2023-02-28T09:50:41;7.68;;;2.80;;
22240;SDS011;11289;52.524;13.694;2023-02-28T09:53:35;6.45;;;2.53;;
22240;SDS011;11289;52.524;13.694;2023-02-28T09:56:02;5.03;;;2.60;;
22240;SDS011;11289;52.524;13.694;2023-02-28T09:58:40;6.18;;;2.78;;
22240;SDS011;11289;52.524;13.694;2023-02-28T10:01:17;6.32;;;2.85;;
22240;SDS011;11289;52.524;13.694;2023-02-28T10:03:55;5.50;;;2.72;;
22240;SDS011;11289;52.524;13.694;2023-02-28T10:06:26;6.18;;;2.70;;
22240;SDS011;11289;52.524;13.694;2023-02-28T10:09:03;7.28;;;3.20;;
22240;SDS011;11289;52.524;13.694;2023-02-28T10:11:34;4.05;;;2.53;;
22240;SDS011;11289;52.524;13.694;2023-02-28T10:14:12;4.47;;;2.42;;
22240;SDS011;11289;52.524;13.694;2023-02-28T10:16:50;5.32;;;2.90;;
22240;SDS011;11289;52.524;13.694;2023-02-28T10:22:01;4.15;;;2.70;;
22240;SDS011;11289;52.524;13.694;2023-02-28T10:27:23;3.70;;;2.40;;
22240;SDS011;11289;52.524;13.694;2023-02-28T10:30:00;4.43;;;2.70;;
22240;SDS011;11289;52.524;13.694;2023-02-28T10:35:00;5.32;;;2.42;;
22240;SDS011;11289;52.524;13.694;2023-02-28T10:37:31;3.80;;;2.20;;
22240;SDS011;11289;52.524;13.694;2023-02-28T10:39:57;4.60;;;2.47;;
22240;SDS011;11289;52.524;13.694;2023-02-28T10:45:33;4.55;;;2.38;;
22240;SDS011;11289;52.524;13.694;2023-02-28T10:47:49;3.40;;;2.47;;
22240;SDS011;11289;52.524;13.694;2023-02-28T10:50:29;6.68;;;2.40;;
22240;SDS011;11289;52.524;13.694;2023-02-28T10:53:13;4.85;;;2.67;;
22240;SDS011;11289;52.524;13.694;2023-02-28T10:55:56;4.65;;;2.33;;
22240;SDS011;11289;52.524;13.694;2023-02-28T10:58:27;4.05;;;2.20;;
22240;SDS011;11289;52.524;13.694;2023-02-28T11:00:54;3.28;;;1.70;;
22240;SDS011;11289;52.524;13.694;2023-02-28T11:03:33;5.20;;;2.20;;
22240;SDS011;11289;52.524;13.694;2023-02-28T11:06:04;4.45;;;1.50;;
22240;SDS011;11289;52.524;13.694;2023-02-28T11:11:00;5.20;;;1.60;;
22240;SDS011;11289;52.524;13.694;2023-02-28T11:13:35;4.32;;;1.33;;
22240;SDS011;11289;52.524;13.694;2023-02-28T11:16:04;3.70;;;1.10;;
22240;SDS011;11289;52.524;13.694;2023-02-28T11:18:40;2.30;;;1.27;;
22240;SDS011;11289;52.524;13.694;2023-02-28T11:21:09;4.18;;;1.42;;
22240;SDS011;11289;52.524;13.694;2023-02-28T11:23:40;6.65;;;1.95;;
22240;SDS011;11289;52.524;13.694;2023-02-28T11:26:06;3.15;;;1.33;;
22240;SDS011;11289;52.524;13.694;2023-02-28T11:28:36;2.70;;;1.73;;
22240;SDS011;11289;52.524;13.694;2023-02-28T11:33:40;3.60;;;2.00;;
22240;SDS011;11289;52.524;13.694;2023-02-28T11:36:14;5.00;;;2.30;;
22240;SDS011;11289;52.524;13.694;2023-02-28T11:38:40;4.35;;;1.95;;
22240;SDS011;11289;52.524;13.694;2023-02-28T11:46:47;4.57;;;2.08;;
22240;SDS011;11289;52.524;13.694;2023-02-28T11:49:26;4.80;;;2.38;;
22240;SDS011;11289;52.524;13.694;2023-02-28T12:00:12;4.13;;;2.38;;
22240;SDS011;11289;52.524;13.694;2023-02-28T12:08:46;4.63;;;2.42;;
22240;SDS011;11289;52.524;13.694;2023-02-28T12:16:45;4.78;;;2.78;;
22240;SDS011;11289;52.524;13.694;2023-02-28T12:19:18;5.18;;;2.60;;
22240;SDS011;11289;52.524;13.694;2023-02-28T12:22:10;4.78;;;2.92;;
22240;SDS011;11289;52.524;13.694;2023-02-28T12:27:17;5.18;;;3.10;;
22240;SDS011;11289;52.524;13.694;2023-02-28T12:30:06;4.55;;;2.55;;
22240;SDS011;11289;52.524;13.694;2023-02-28T12:32:49;4.82;;;2.97;;
22240;SDS011;11289;52.524;13.694;2023-02-28T12:35:41;4.55;;;2.45;;
22240;SDS011;11289;52.524;13.694;2023-02-28T12:38:22;4.75;;;2.72;;
22240;SDS011;11289;52.524;13.694;2023-02-28T12:43:34;4.95;;;2.90;;
22240;SDS011;11289;52.524;13.694;2023-02-28T12:46:04;6.55;;;2.83;;
22240;SDS011;11289;52.524;13.694;2023-02-28T12:48:45;4.93;;;3.00;;
22240;SDS011;11289;52.524;13.694;2023-02-28T12:51:13;4.30;;;2.33;;
22240;SDS011;11289;52.524;13.694;2023-02-28T12:56:33;5.25;;;2.75;;
22240;SDS011;11289;52.524;13.694;2023-02-28T13:02:00;5.88;;;3.17;;
22240;SDS011;11289;52.524;13.694;2023-02-28T13:04:47;7.40;;;2.72;;
22240;SDS011;11289;52.524;13.694;2023-02-28T13:10:21;5.80;;;2.67;;
22240;SDS011;11289;52.524;13.694;2023-02-28T13:12:47;4.78;;;3.60;;
22240;SDS011;11289;52.524;13.694;2023-02-28T13:15:22;5.53;;;3.13;;
22240;SDS011;11289;52.524;13.694;2023-02-28T13:17:54;5.35;;;3.20;;
22240;SDS011;11289;52.524;13.694;2023-02-28T13:20:23;5.72;;;3.13;;
22240;SDS011;11289;52.524;13.694;2023-02-28T13:22:59;6.15;;;3.78;;
22240;SDS011;11289;52.524;13.694;2023-02-28T13:28:10;7.00;;;3.17;;
22240;SDS011;11289;52.524;13.694;2023-02-28T13:33:27;9.40;;;3.42;;
22240;SDS011;11289;52.524;13.694;2023-02-28T13:36:09;6.05;;;2.67;;
22240;SDS011;11289;52.524;13.694;2023-02-28T13:38:44;4.47;;;2.53;;
22240;SDS011;11289;52.524;13.694;2023-02-28T13:46:34;6.65;;;3.17;;
22240;SDS011;11289;52.524;13.694;2023-02-28T14:05:38;4.20;;;3.00;;
22240;SDS011;11289;52.524;13.694;2023-02-28T14:08:25;4.70;;;2.35;;
22240;SDS011;11289;52.524;13.694;2023-02-28T14:10:50;5.38;;;2.83;;
22240;SDS011;11289;52.524;13.694;2023-02-28T14:16:10;6.78;;;4.53;;
22240;SDS011;11289;52.524;13.694;2023-02-28T14:18:40;6.10;;;3.42;;
22240;SDS011;11289;52.524;13.694;2023-02-28T14:24:08;4.28;;;2.85;;
22240;SDS011;11289;52.524;13.694;2023-02-28T14:37:19;5.85;;;2.83;;
22240;SDS011;11289;52.524;13.694;2023-02-28T14:39:49;4.97;;;3.20;;
22240;SDS011;11289;52.524;13.694;2023-02-28T14:44:54;6.75;;;4.43;;
22240;SDS011;11289;52.524;13.694;2023-02-28T14:47:21;5.60;;;3.50;;
22240;SDS011;11289;52.524;13.694;2023-02-28T14:49:48;7.57;;;4.70;;
22240;SDS011;11289;52.524;13.694;2023-02-28T14:52:21;5.60;;;3.92;;
22240;SDS011;11289;52.524;13.694;2023-02-28T14:54:52;4.88;;;3.97;;
22240;SDS011;11289;52.524;13.694;2023-02-28T14:57:24;4.43;;;2.90;;
22240;SDS011;11289;52.524;13.694;2023-02-28T15:02:37;4.97;;;3.63;;
22240;SDS011;11289;52.524;13.694;2023-02-28T15:07:41;5.30;;;3.70;;
22240;SDS011;11289;52.524;13.694;2023-02-28T15:10:13;5.45;;;3.40;;
22240;SDS011;11289;52.524;13.694;2023-02-28T15:12:43;5.95;;;3.58;;
22240;SDS011;11289;52.524;13.694;2023-02-28T15:18:23;5.60;;;2.67;;
22240;SDS011;11289;52.524;13.694;2023-02-28T15:21:03;5.22;;;2.90;;
22240;SDS011;11289;52.524;13.694;2023-02-28T15:23:48;5.10;;;3.25;;
22240;SDS011;11289;52.524;13.694;2023-02-28T15:26:22;3.72;;;2.45;;
22240;SDS011;11289;52.524;13.694;2023-02-28T15:28:57;5.63;;;3.72;;
22240;SDS011;11289;52.524;13.694;2023-02-28T15:31:29;5.03;;;3.25;;
22240;SDS011;11289;52.524;13.694;2023-02-28T15:36:48;4.72;;;3.60;;
22240;SDS011;11289;52.524;13.694;2023-02-28T15:39:18;5.22;;;3.17;;
22240;SDS011;11289;52.524;13.694;2023-02-28T15:41:48;8.00;;;3.42;;
22240;SDS011;11289;52.524;13.694;2023-02-28T15:47:21;5.57;;;3.45;;
22240;SDS011;11289;52.524;13.694;2023-02-28T15:49:51;5.50;;;3.28;;
22240;SDS011;11289;52.524;13.694;2023-02-28T15:52:19;7.70;;;3.33;;
22240;SDS011;11289;52.524;13.694;2023-02-28T15:55:10;6.20;;;3.60;;
22240;SDS011;11289;52.524;13.694;2023-02-28T15:57:42;6.28;;;3.33;;
22240;SDS011;11289;52.524;13.694;2023-02-28T16:00:13;6.25;;;3.53;;
22240;SDS011;11289;52.524;13.694;2023-02-28T16:02:40;7.22;;;4.00;;
22240;SDS011;11289;52.524;13.694;2023-02-28T16:07:41;5.28;;;3.50;;
22240;SDS011;11289;52.524;13.694;2023-02-28T16:10:09;6.25;;;3.15;;
22240;SDS011;11289;52.524;13.694;2023-02-28T16:12:39;6.95;;;3.53;;
22240;SDS011;11289;52.524;13.694;2023-02-28T16:15:06;11.32;;;4.53;;
22240;SDS011;11289;52.524;13.694;2023-02-28T16:17:35;10.32;;;4.40;;
22240;SDS011;11289;52.524;13.694;2023-02-28T16:22:46;11.02;;;5.55;;
22240;SDS011;11289;52.524;13.694;2023-02-28T16:25:14;11.60;;;5.20;;
22240;SDS011;11289;52.524;13.694;2023-02-28T16:30:21;9.95;;;5.43;;
22240;SDS011;11289;52.524;13.694;2023-02-28T16:32:49;8.05;;;4.35;;
22240;SDS011;11289;52.524;13.694;2023-02-28T16:35:15;9.23;;;5.13;;
22240;SDS011;11289;52.524;13.694;2023-02-28T16:37:42;6.82;;;4.72;;
22240;SDS011;11289;52.524;13.694;2023-02-28T16:40:29;8.85;;;4.85;;
22240;SDS011;11289;52.524;13.694;2023-02-28T16:42:58;7.43;;;5.00;;
22240;SDS011;11289;52.524;13.694;2023-02-28T16:45:26;6.90;;;4.68;;
22240;SDS011;11289;52.524;13.694;2023-02-28T16:47:52;9.80;;;4.97;;
22240;SDS011;11289;52.524;13.694;2023-02-28T16:50:20;6.85;;;4.97;;
22240;SDS011;11289;52.524;13.694;2023-02-28T16:52:47;7.85;;;4.93;;
22240;SDS011;11289;52.524;13.694;2023-02-28T16:55:14;12.10;;;5.32;;
22240;SDS011;11289;52.524;13.694;2023-02-28T16:57:40;6.63;;;4.32;;
22240;SDS011;11289;52.524;13.694;2023-02-28T17:00:23;8.95;;;4.70;;
22240;SDS011;11289;52.524;13.694;2023-02-28T17:02:49;8.13;;;4.70;;
22240;SDS011;11289;52.524;13.694;2023-02-28T17:05:14;7.47;;;5.03;;
22240;SDS011;11289;52.524;13.694;2023-02-28T17:07:41;10.40;;;4.60;;
22240;SDS011;11289;52.524;13.694;2023-02-28T17:12:49;8.15;;;4.93;;
22240;SDS011;11289;52.524;13.694;2023-02-28T17:15:15;7.25;;;4.60;;
22240;SDS011;11289;52.524;13.694;2023-02-28T17:17:42;9.43;;;4.43;;
22240;SDS011;11289;52.524;13.694;2023-02-28T17:20:18;9.68;;;4.30;;
22240;SDS011;11289;52.524;13.694;2023-02-28T17:22:49;8.27;;;4.13;;
22240;SDS011;11289;52.524;13.694;2023-02-28T17:27:46;8.25;;;5.00;;
22240;SDS011;11289;52.524;13.694;2023-02-28T17:30:25;10.50;;;5.45;;
22240;SDS011;11289;52.524;13.694;2023-02-28T17:32:52;9.98;;;6.10;;